sensor_id;sensor_type;location;lat;lon;timestamp;P1;durP1;ratioP1;P2;durP2;ratioP2
75997;SDS011;64685;48.762;44.822;2022-11-20T00:00:41;77.65;;;26.40;;
75997;SDS011;64685;48.762;44.822;2022-11-20T00:04:06;83.43;;;27.25;;
75997;SDS011;64685;48.762;44.822;2022-11-20T00:07:30;85.90;;;26.88;;
75997;SDS011;64685;48.762;44.822;2022-11-20T00:10:55;81.75;;;26.33;;
75997;SDS011;64685;48.762;44.822;2022-11-20T00:14:19;79.60;;;27.33;;
75997;SDS011;64685;48.762;44.822;2022-11-20T00:17:44;88.32;;;28.00;;
75997;SDS011;64685;48.762;44.822;2022-11-20T00:21:13;74.50;;;26.25;;
75997;SDS011;64685;48.762;44.822;2022-11-20T00:24:37;69.93;;;23.42;;
75997;SDS011;64685;48.762;44.822;2022-11-20T00:28:02;71.70;;;24.73;;
75997;SDS011;64685;48.762;44.822;2022-11-20T00:31:27;80.18;;;26.23;;
75997;SDS011;64685;48.762;44.822;2022-11-20T00:34:52;77.15;;;26.20;;
75997;SDS011;64685;48.762;44.822;2022-11-20T00:38:16;74.43;;;24.95;;
75997;SDS011;64685;48.762;44.822;2022-11-20T00:41:41;67.18;;;24.48;;
75997;SDS011;64685;48.762;44.822;2022-11-20T00:45:05;70.45;;;22.95;;
75997;SDS011;64685;48.762;44.822;2022-11-20T00:48:50;57.25;;;20.77;;
75997;SDS011;64685;48.762;44.822;2022-11-20T00:52:15;58.83;;;21.23;;
75997;SDS011;64685;48.762;44.822;2022-11-20T00:55:39;56.67;;;21.88;;
75997;SDS011;64685;48.762;44.822;2022-11-20T00:59:04;58.17;;;20.90;;
75997;SDS011;64685;48.762;44.822;2022-11-20T01:02:28;50.00;;;17.83;;
75997;SDS011;64685;48.762;44.822;2022-11-20T01:05:58;53.58;;;19.83;;
75997;SDS011;64685;48.762;44.822;2022-11-20T01:09:23;51.13;;;19.80;;
75997;SDS011;64685;48.762;44.822;2022-11-20T01:12:47;51.03;;;18.38;;
75997;SDS011;64685;48.762;44.822;2022-11-20T01:16:17;46.35;;;17.00;;
75997;SDS011;64685;48.762;44.822;2022-11-20T01:19:42;52.00;;;20.13;;
75997;SDS011;64685;48.762;44.822;2022-11-20T01:23:06;51.47;;;19.33;;
75997;SDS011;64685;48.762;44.822;2022-11-20T01:26:34;52.08;;;18.45;;
75997;SDS011;64685;48.762;44.822;2022-11-20T01:29:59;50.65;;;18.48;;
75997;SDS011;64685;48.762;44.822;2022-11-20T01:33:24;60.28;;;20.33;;
75997;SDS011;64685;48.762;44.822;2022-11-20T01:36:49;60.45;;;20.63;;
75997;SDS011;64685;48.762;44.822;2022-11-20T01:40:15;57.88;;;20.33;;
75997;SDS011;64685;48.762;44.822;2022-11-20T01:44:00;51.17;;;17.75;;
75997;SDS011;64685;48.762;44.822;2022-11-20T01:51:17;51.92;;;18.55;;
75997;SDS011;64685;48.762;44.822;2022-11-20T01:54:47;40.38;;;17.08;;
75997;SDS011;64685;48.762;44.822;2022-11-20T01:58:18;44.05;;;18.45;;
75997;SDS011;64685;48.762;44.822;2022-11-20T02:01:44;44.70;;;18.45;;
75997;SDS011;64685;48.762;44.822;2022-11-20T02:08:58;43.20;;;17.00;;
75997;SDS011;64685;48.762;44.822;2022-11-20T02:12:23;37.33;;;16.23;;
75997;SDS011;64685;48.762;44.822;2022-11-20T02:16:08;36.83;;;14.65;;
75997;SDS011;64685;48.762;44.822;2022-11-20T02:19:34;37.50;;;16.08;;
75997;SDS011;64685;48.762;44.822;2022-11-20T02:23:08;39.65;;;16.08;;
75997;SDS011;64685;48.762;44.822;2022-11-20T02:26:39;34.67;;;14.85;;
75997;SDS011;64685;48.762;44.822;2022-11-20T02:30:05;34.40;;;15.02;;
75997;SDS011;64685;48.762;44.822;2022-11-20T02:33:30;34.42;;;13.65;;
75997;SDS011;64685;48.762;44.822;2022-11-20T02:36:55;38.08;;;15.93;;
75997;SDS011;64685;48.762;44.822;2022-11-20T02:40:21;30.63;;;14.02;;
75997;SDS011;64685;48.762;44.822;2022-11-20T02:43:46;29.63;;;13.98;;
75997;SDS011;64685;48.762;44.822;2022-11-20T02:47:10;29.48;;;13.45;;
75997;SDS011;64685;48.762;44.822;2022-11-20T02:50:38;28.33;;;13.00;;
75997;SDS011;64685;48.762;44.822;2022-11-20T02:54:03;29.98;;;13.68;;
75997;SDS011;64685;48.762;44.822;2022-11-20T02:57:28;18.48;;;9.32;;
75997;SDS011;64685;48.762;44.822;2022-11-20T03:00:53;20.75;;;10.38;;
75997;SDS011;64685;48.762;44.822;2022-11-20T03:04:18;21.17;;;9.77;;
75997;SDS011;64685;48.762;44.822;2022-11-20T03:07:43;20.60;;;9.63;;
75997;SDS011;64685;48.762;44.822;2022-11-20T03:11:08;16.63;;;8.10;;
75997;SDS011;64685;48.762;44.822;2022-11-20T03:14:32;17.83;;;8.93;;
75997;SDS011;64685;48.762;44.822;2022-11-20T03:17:57;20.40;;;9.93;;
75997;SDS011;64685;48.762;44.822;2022-11-20T03:21:21;18.08;;;8.82;;
75997;SDS011;64685;48.762;44.822;2022-11-20T03:24:46;19.90;;;9.38;;
75997;SDS011;64685;48.762;44.822;2022-11-20T03:28:11;18.05;;;10.30;;
75997;SDS011;64685;48.762;44.822;2022-11-20T03:31:36;18.52;;;8.57;;
75997;SDS011;64685;48.762;44.822;2022-11-20T03:35:01;19.67;;;9.02;;
75997;SDS011;64685;48.762;44.822;2022-11-20T03:38:33;16.67;;;7.95;;
75997;SDS011;64685;48.762;44.822;2022-11-20T03:41:57;16.42;;;6.85;;
75997;SDS011;64685;48.762;44.822;2022-11-20T03:45:22;11.45;;;4.82;;
75997;SDS011;64685;48.762;44.822;2022-11-20T03:48:47;10.88;;;5.15;;
75997;SDS011;64685;48.762;44.822;2022-11-20T03:52:12;9.73;;;4.22;;
75997;SDS011;64685;48.762;44.822;2022-11-20T03:55:36;8.77;;;3.65;;
75997;SDS011;64685;48.762;44.822;2022-11-20T03:59:02;8.20;;;3.60;;
75997;SDS011;64685;48.762;44.822;2022-11-20T04:02:29;8.27;;;3.30;;
75997;SDS011;64685;48.762;44.822;2022-11-20T04:05:54;8.55;;;3.63;;
75997;SDS011;64685;48.762;44.822;2022-11-20T04:09:18;8.70;;;3.50;;
75997;SDS011;64685;48.762;44.822;2022-11-20T04:12:45;7.55;;;2.80;;
75997;SDS011;64685;48.762;44.822;2022-11-20T04:16:15;8.82;;;3.40;;
75997;SDS011;64685;48.762;44.822;2022-11-20T04:19:39;7.55;;;3.05;;
75997;SDS011;64685;48.762;44.822;2022-11-20T04:23:04;7.85;;;3.17;;
75997;SDS011;64685;48.762;44.822;2022-11-20T04:26:29;6.55;;;3.33;;
75997;SDS011;64685;48.762;44.822;2022-11-20T04:29:54;8.10;;;3.03;;
75997;SDS011;64685;48.762;44.822;2022-11-20T04:33:18;7.45;;;3.17;;
75997;SDS011;64685;48.762;44.822;2022-11-20T04:36:43;5.57;;;2.53;;
75997;SDS011;64685;48.762;44.822;2022-11-20T04:40:07;6.68;;;2.78;;
75997;SDS011;64685;48.762;44.822;2022-11-20T04:43:33;7.43;;;2.83;;
75997;SDS011;64685;48.762;44.822;2022-11-20T04:46:57;7.53;;;2.92;;
75997;SDS011;64685;48.762;44.822;2022-11-20T04:50:22;6.50;;;2.83;;
75997;SDS011;64685;48.762;44.822;2022-11-20T04:53:46;7.22;;;2.75;;
75997;SDS011;64685;48.762;44.822;2022-11-20T04:57:12;9.20;;;4.30;;
75997;SDS011;64685;48.762;44.822;2022-11-20T05:00:37;7.82;;;3.58;;
75997;SDS011;64685;48.762;44.822;2022-11-20T05:04:01;8.23;;;3.20;;
75997;SDS011;64685;48.762;44.822;2022-11-20T05:07:26;8.45;;;3.70;;
75997;SDS011;64685;48.762;44.822;2022-11-20T05:10:50;10.95;;;4.70;;
75997;SDS011;64685;48.762;44.822;2022-11-20T05:14:14;9.27;;;4.03;;
75997;SDS011;64685;48.762;44.822;2022-11-20T05:17:39;7.50;;;3.42;;
75997;SDS011;64685;48.762;44.822;2022-11-20T05:21:04;8.50;;;3.63;;
75997;SDS011;64685;48.762;44.822;2022-11-20T05:24:36;9.00;;;3.38;;
75997;SDS011;64685;48.762;44.822;2022-11-20T05:28:00;9.13;;;3.38;;
75997;SDS011;64685;48.762;44.822;2022-11-20T05:31:25;9.48;;;3.40;;
75997;SDS011;64685;48.762;44.822;2022-11-20T05:34:51;10.18;;;4.15;;
75997;SDS011;64685;48.762;44.822;2022-11-20T05:38:15;12.55;;;4.60;;
75997;SDS011;64685;48.762;44.822;2022-11-20T05:41:40;12.05;;;4.28;;
75997;SDS011;64685;48.762;44.822;2022-11-20T05:45:04;11.63;;;5.43;;
75997;SDS011;64685;48.762;44.822;2022-11-20T05:48:31;10.43;;;4.32;;
75997;SDS011;64685;48.762;44.822;2022-11-20T05:51:55;9.82;;;3.25;;
75997;SDS011;64685;48.762;44.822;2022-11-20T05:55:20;10.15;;;3.97;;
75997;SDS011;64685;48.762;44.822;2022-11-20T05:58:45;9.15;;;3.60;;
75997;SDS011;64685;48.762;44.822;2022-11-20T06:02:10;10.15;;;3.97;;
75997;SDS011;64685;48.762;44.822;2022-11-20T06:05:35;9.43;;;4.20;;
75997;SDS011;64685;48.762;44.822;2022-11-20T06:08:59;10.52;;;3.95;;
75997;SDS011;64685;48.762;44.822;2022-11-20T06:12:24;10.13;;;3.60;;
75997;SDS011;64685;48.762;44.822;2022-11-20T06:15:49;7.20;;;2.78;;
75997;SDS011;64685;48.762;44.822;2022-11-20T06:19:14;6.82;;;2.50;;
75997;SDS011;64685;48.762;44.822;2022-11-20T06:22:38;9.75;;;3.33;;
75997;SDS011;64685;48.762;44.822;2022-11-20T06:26:07;7.00;;;3.13;;
75997;SDS011;64685;48.762;44.822;2022-11-20T06:29:32;8.82;;;3.63;;
75997;SDS011;64685;48.762;44.822;2022-11-20T06:32:56;8.70;;;3.40;;
75997;SDS011;64685;48.762;44.822;2022-11-20T06:36:34;10.18;;;3.78;;
75997;SDS011;64685;48.762;44.822;2022-11-20T06:39:59;8.13;;;3.08;;
75997;SDS011;64685;48.762;44.822;2022-11-20T06:43:23;9.32;;;3.30;;
75997;SDS011;64685;48.762;44.822;2022-11-20T06:46:48;10.98;;;3.85;;
75997;SDS011;64685;48.762;44.822;2022-11-20T06:50:13;8.75;;;2.97;;
75997;SDS011;64685;48.762;44.822;2022-11-20T06:53:37;9.60;;;3.85;;
75997;SDS011;64685;48.762;44.822;2022-11-20T06:57:02;11.13;;;3.87;;
75997;SDS011;64685;48.762;44.822;2022-11-20T07:00:26;12.43;;;5.18;;
75997;SDS011;64685;48.762;44.822;2022-11-20T07:03:50;9.52;;;3.78;;
75997;SDS011;64685;48.762;44.822;2022-11-20T07:07:15;12.63;;;4.72;;
75997;SDS011;64685;48.762;44.822;2022-11-20T07:10:39;8.93;;;4.07;;
75997;SDS011;64685;48.762;44.822;2022-11-20T07:14:04;11.38;;;4.63;;
75997;SDS011;64685;48.762;44.822;2022-11-20T07:17:29;10.68;;;4.78;;
75997;SDS011;64685;48.762;44.822;2022-11-20T07:20:53;8.30;;;3.58;;
75997;SDS011;64685;48.762;44.822;2022-11-20T07:24:18;8.00;;;2.80;;
75997;SDS011;64685;48.762;44.822;2022-11-20T07:27:56;8.18;;;3.13;;
75997;SDS011;64685;48.762;44.822;2022-11-20T07:31:20;7.50;;;2.67;;
75997;SDS011;64685;48.762;44.822;2022-11-20T07:34:45;8.10;;;2.72;;
75997;SDS011;64685;48.762;44.822;2022-11-20T07:38:10;8.60;;;2.95;;
75997;SDS011;64685;48.762;44.822;2022-11-20T07:41:34;8.02;;;3.45;;
75997;SDS011;64685;48.762;44.822;2022-11-20T07:45:00;8.63;;;3.42;;
75997;SDS011;64685;48.762;44.822;2022-11-20T07:48:25;8.10;;;2.67;;
75997;SDS011;64685;48.762;44.822;2022-11-20T07:51:50;8.55;;;3.25;;
75997;SDS011;64685;48.762;44.822;2022-11-20T07:55:14;9.02;;;3.72;;
75997;SDS011;64685;48.762;44.822;2022-11-20T07:58:39;11.38;;;3.90;;
75997;SDS011;64685;48.762;44.822;2022-11-20T08:02:04;9.68;;;3.97;;
75997;SDS011;64685;48.762;44.822;2022-11-20T08:05:32;9.80;;;4.00;;
75997;SDS011;64685;48.762;44.822;2022-11-20T08:08:56;8.05;;;3.47;;
75997;SDS011;64685;48.762;44.822;2022-11-20T08:12:21;8.80;;;4.05;;
75997;SDS011;64685;48.762;44.822;2022-11-20T08:16:03;7.50;;;3.40;;
75997;SDS011;64685;48.762;44.822;2022-11-20T08:19:28;12.55;;;4.65;;
75997;SDS011;64685;48.762;44.822;2022-11-20T08:22:57;8.18;;;3.65;;
75997;SDS011;64685;48.762;44.822;2022-11-20T08:26:22;8.45;;;3.20;;
75997;SDS011;64685;48.762;44.822;2022-11-20T08:29:55;8.55;;;3.65;;
75997;SDS011;64685;48.762;44.822;2022-11-20T08:33:23;9.75;;;3.92;;
75997;SDS011;64685;48.762;44.822;2022-11-20T08:36:47;7.93;;;3.58;;
75997;SDS011;64685;48.762;44.822;2022-11-20T08:40:12;9.32;;;4.15;;
75997;SDS011;64685;48.762;44.822;2022-11-20T08:44:02;10.18;;;4.10;;
75997;SDS011;64685;48.762;44.822;2022-11-20T08:47:28;10.48;;;4.20;;
75997;SDS011;64685;48.762;44.822;2022-11-20T08:50:53;13.15;;;4.00;;
75997;SDS011;64685;48.762;44.822;2022-11-20T08:54:19;11.35;;;4.88;;
75997;SDS011;64685;48.762;44.822;2022-11-20T08:57:43;10.90;;;5.07;;
75997;SDS011;64685;48.762;44.822;2022-11-20T09:01:08;11.45;;;4.53;;
75997;SDS011;64685;48.762;44.822;2022-11-20T09:04:33;10.55;;;4.50;;
75997;SDS011;64685;48.762;44.822;2022-11-20T09:07:57;11.38;;;4.47;;
75997;SDS011;64685;48.762;44.822;2022-11-20T09:11:22;10.85;;;4.82;;
75997;SDS011;64685;48.762;44.822;2022-11-20T09:14:47;13.32;;;5.15;;
75997;SDS011;64685;48.762;44.822;2022-11-20T09:18:11;10.88;;;5.47;;
75997;SDS011;64685;48.762;44.822;2022-11-20T09:21:36;12.00;;;5.25;;
75997;SDS011;64685;48.762;44.822;2022-11-20T09:25:04;12.50;;;5.68;;
75997;SDS011;64685;48.762;44.822;2022-11-20T09:28:30;15.95;;;6.50;;
75997;SDS011;64685;48.762;44.822;2022-11-20T09:31:54;12.48;;;6.40;;
75997;SDS011;64685;48.762;44.822;2022-11-20T09:35:19;11.80;;;5.53;;
75997;SDS011;64685;48.762;44.822;2022-11-20T09:38:44;15.85;;;5.82;;
75997;SDS011;64685;48.762;44.822;2022-11-20T09:57:08;13.40;;;5.72;;
75997;SDS011;64685;48.762;44.822;2022-11-20T10:00:56;13.68;;;6.30;;
75997;SDS011;64685;48.762;44.822;2022-11-20T10:04:21;11.95;;;5.30;;
75997;SDS011;64685;48.762;44.822;2022-11-20T10:18:53;15.18;;;5.97;;
75997;SDS011;64685;48.762;44.822;2022-11-20T10:30:17;11.15;;;4.65;;
75997;SDS011;64685;48.762;44.822;2022-11-20T10:38:01;11.32;;;4.60;;
75997;SDS011;64685;48.762;44.822;2022-11-20T10:41:33;12.15;;;4.90;;
75997;SDS011;64685;48.762;44.822;2022-11-20T10:45:04;11.35;;;4.55;;
75997;SDS011;64685;48.762;44.822;2022-11-20T10:48:44;11.27;;;4.10;;
75997;SDS011;64685;48.762;44.822;2022-11-20T10:56:05;11.65;;;4.97;;
75997;SDS011;64685;48.762;44.822;2022-11-20T11:03:30;9.85;;;4.22;;
75997;SDS011;64685;48.762;44.822;2022-11-20T11:07:12;12.05;;;5.47;;
75997;SDS011;64685;48.762;44.822;2022-11-20T11:14:14;11.38;;;4.85;;
75997;SDS011;64685;48.762;44.822;2022-11-20T11:17:51;10.50;;;4.50;;
75997;SDS011;64685;48.762;44.822;2022-11-20T11:21:21;8.75;;;4.05;;
75997;SDS011;64685;48.762;44.822;2022-11-20T11:24:52;11.52;;;4.57;;
75997;SDS011;64685;48.762;44.822;2022-11-20T11:28:24;9.73;;;3.58;;
75997;SDS011;64685;48.762;44.822;2022-11-20T11:32:02;9.38;;;3.88;;
75997;SDS011;64685;48.762;44.822;2022-11-20T11:35:31;9.80;;;4.68;;
75997;SDS011;64685;48.762;44.822;2022-11-20T11:38:58;10.48;;;4.32;;
75997;SDS011;64685;48.762;44.822;2022-11-20T11:42:23;9.38;;;4.32;;
75997;SDS011;64685;48.762;44.822;2022-11-20T11:53:26;12.98;;;4.95;;
75997;SDS011;64685;48.762;44.822;2022-11-20T11:57:23;14.32;;;5.50;;
75997;SDS011;64685;48.762;44.822;2022-11-20T12:07:47;11.60;;;4.72;;
75997;SDS011;64685;48.762;44.822;2022-11-20T12:14:52;13.30;;;5.55;;
75997;SDS011;64685;48.762;44.822;2022-11-20T12:18:20;12.82;;;5.60;;
75997;SDS011;64685;48.762;44.822;2022-11-20T12:25:18;10.88;;;4.35;;
75997;SDS011;64685;48.762;44.822;2022-11-20T12:39:57;18.08;;;7.65;;
75997;SDS011;64685;48.762;44.822;2022-11-20T12:43:23;16.77;;;7.90;;
75997;SDS011;64685;48.762;44.822;2022-11-20T12:54:40;19.13;;;8.43;;
75997;SDS011;64685;48.762;44.822;2022-11-20T12:58:39;16.85;;;7.43;;
75997;SDS011;64685;48.762;44.822;2022-11-20T13:09:40;13.55;;;5.18;;
75997;SDS011;64685;48.762;44.822;2022-11-20T13:17:11;12.52;;;6.22;;
75997;SDS011;64685;48.762;44.822;2022-11-20T13:20:44;15.00;;;7.10;;
75997;SDS011;64685;48.762;44.822;2022-11-20T13:24:21;18.17;;;6.80;;
75997;SDS011;64685;48.762;44.822;2022-11-20T13:27:49;18.70;;;8.85;;
75997;SDS011;64685;48.762;44.822;2022-11-20T13:31:43;19.70;;;8.82;;
75997;SDS011;64685;48.762;44.822;2022-11-20T13:38:54;20.55;;;7.57;;
75997;SDS011;64685;48.762;44.822;2022-11-20T13:42:30;14.90;;;7.00;;
75997;SDS011;64685;48.762;44.822;2022-11-20T13:46:06;17.95;;;7.15;;
75997;SDS011;64685;48.762;44.822;2022-11-20T13:49:54;19.08;;;7.72;;
75997;SDS011;64685;48.762;44.822;2022-11-20T14:00:56;17.00;;;6.43;;
75997;SDS011;64685;48.762;44.822;2022-11-20T14:04:33;14.82;;;6.32;;
75997;SDS011;64685;48.762;44.822;2022-11-20T14:08:03;15.20;;;6.72;;
75997;SDS011;64685;48.762;44.822;2022-11-20T14:11:29;13.45;;;6.55;;
75997;SDS011;64685;48.762;44.822;2022-11-20T14:14:55;13.98;;;6.10;;
75997;SDS011;64685;48.762;44.822;2022-11-20T14:18:22;14.70;;;6.32;;
75997;SDS011;64685;48.762;44.822;2022-11-20T14:21:48;14.70;;;6.63;;
75997;SDS011;64685;48.762;44.822;2022-11-20T14:28:43;22.20;;;9.02;;
75997;SDS011;64685;48.762;44.822;2022-11-20T14:32:17;20.40;;;9.27;;
75997;SDS011;64685;48.762;44.822;2022-11-20T14:35:47;19.65;;;9.70;;
75997;SDS011;64685;48.762;44.822;2022-11-20T14:39:19;18.33;;;8.98;;
75997;SDS011;64685;48.762;44.822;2022-11-20T14:43:00;13.63;;;5.30;;
75997;SDS011;64685;48.762;44.822;2022-11-20T14:46:25;13.65;;;6.40;;
75997;SDS011;64685;48.762;44.822;2022-11-20T14:49:53;12.38;;;5.07;;
75997;SDS011;64685;48.762;44.822;2022-11-20T14:53:22;14.30;;;6.03;;
75997;SDS011;64685;48.762;44.822;2022-11-20T14:56:57;13.88;;;6.40;;
75997;SDS011;64685;48.762;44.822;2022-11-20T15:00:27;14.88;;;7.40;;
75997;SDS011;64685;48.762;44.822;2022-11-20T15:04:05;18.15;;;5.88;;
75997;SDS011;64685;48.762;44.822;2022-11-20T15:07:32;11.90;;;5.13;;
75997;SDS011;64685;48.762;44.822;2022-11-20T15:10:57;10.25;;;4.70;;
75997;SDS011;64685;48.762;44.822;2022-11-20T15:14:27;12.32;;;4.90;;
75997;SDS011;64685;48.762;44.822;2022-11-20T15:18:01;11.95;;;4.90;;
75997;SDS011;64685;48.762;44.822;2022-11-20T15:21:28;10.93;;;4.53;;
75997;SDS011;64685;48.762;44.822;2022-11-20T15:24:52;10.38;;;4.32;;
75997;SDS011;64685;48.762;44.822;2022-11-20T15:28:36;9.27;;;4.35;;
75997;SDS011;64685;48.762;44.822;2022-11-20T15:32:01;11.15;;;4.70;;
75997;SDS011;64685;48.762;44.822;2022-11-20T15:35:25;11.18;;;4.68;;
75997;SDS011;64685;48.762;44.822;2022-11-20T15:38:50;11.40;;;4.78;;
75997;SDS011;64685;48.762;44.822;2022-11-20T15:42:14;13.05;;;5.28;;
75997;SDS011;64685;48.762;44.822;2022-11-20T15:45:41;11.23;;;4.82;;
75997;SDS011;64685;48.762;44.822;2022-11-20T15:49:11;13.60;;;5.68;;
75997;SDS011;64685;48.762;44.822;2022-11-20T15:52:42;12.23;;;5.03;;
75997;SDS011;64685;48.762;44.822;2022-11-20T15:56:13;11.77;;;5.32;;
75997;SDS011;64685;48.762;44.822;2022-11-20T15:59:38;12.95;;;5.00;;
75997;SDS011;64685;48.762;44.822;2022-11-20T16:03:03;12.98;;;6.03;;
75997;SDS011;64685;48.762;44.822;2022-11-20T16:06:27;14.68;;;6.00;;
75997;SDS011;64685;48.762;44.822;2022-11-20T16:09:52;17.13;;;7.50;;
75997;SDS011;64685;48.762;44.822;2022-11-20T16:13:17;18.15;;;6.53;;
75997;SDS011;64685;48.762;44.822;2022-11-20T16:17:20;15.48;;;6.95;;
75997;SDS011;64685;48.762;44.822;2022-11-20T16:20:46;17.55;;;6.68;;
75997;SDS011;64685;48.762;44.822;2022-11-20T16:24:12;15.90;;;7.43;;
75997;SDS011;64685;48.762;44.822;2022-11-20T16:27:38;12.43;;;5.25;;
75997;SDS011;64685;48.762;44.822;2022-11-20T16:31:15;14.95;;;7.57;;
75997;SDS011;64685;48.762;44.822;2022-11-20T16:34:40;14.00;;;6.35;;
75997;SDS011;64685;48.762;44.822;2022-11-20T16:38:05;13.70;;;5.88;;
75997;SDS011;64685;48.762;44.822;2022-11-20T16:41:30;14.18;;;6.78;;
75997;SDS011;64685;48.762;44.822;2022-11-20T16:44:58;18.15;;;7.10;;
75997;SDS011;64685;48.762;44.822;2022-11-20T16:48:23;17.00;;;6.68;;
75997;SDS011;64685;48.762;44.822;2022-11-20T16:51:47;14.40;;;6.30;;
75997;SDS011;64685;48.762;44.822;2022-11-20T16:55:12;18.90;;;6.18;;
75997;SDS011;64685;48.762;44.822;2022-11-20T16:58:45;17.15;;;7.22;;
75997;SDS011;64685;48.762;44.822;2022-11-20T17:02:10;18.45;;;6.63;;
75997;SDS011;64685;48.762;44.822;2022-11-20T17:05:34;13.05;;;5.72;;
75997;SDS011;64685;48.762;44.822;2022-11-20T17:09:00;15.50;;;6.82;;
75997;SDS011;64685;48.762;44.822;2022-11-20T17:12:25;15.82;;;6.70;;
75997;SDS011;64685;48.762;44.822;2022-11-20T17:15:49;14.00;;;6.13;;
75997;SDS011;64685;48.762;44.822;2022-11-20T17:19:14;14.23;;;5.57;;
75997;SDS011;64685;48.762;44.822;2022-11-20T17:22:38;15.95;;;6.78;;
75997;SDS011;64685;48.762;44.822;2022-11-20T17:26:06;14.93;;;5.75;;
75997;SDS011;64685;48.762;44.822;2022-11-20T17:29:31;15.45;;;6.45;;
75997;SDS011;64685;48.762;44.822;2022-11-20T17:32:55;15.82;;;6.70;;
75997;SDS011;64685;48.762;44.822;2022-11-20T17:36:20;15.73;;;6.32;;
75997;SDS011;64685;48.762;44.822;2022-11-20T17:39:45;14.27;;;5.63;;
75997;SDS011;64685;48.762;44.822;2022-11-20T17:43:10;17.40;;;6.88;;
75997;SDS011;64685;48.762;44.822;2022-11-20T17:46:36;17.60;;;6.97;;
75997;SDS011;64685;48.762;44.822;2022-11-20T17:50:01;18.65;;;6.10;;
75997;SDS011;64685;48.762;44.822;2022-11-20T17:53:27;15.38;;;5.82;;
75997;SDS011;64685;48.762;44.822;2022-11-20T17:56:52;18.80;;;6.15;;
75997;SDS011;64685;48.762;44.822;2022-11-20T18:00:17;16.88;;;7.07;;
75997;SDS011;64685;48.762;44.822;2022-11-20T18:03:42;15.95;;;6.35;;
75997;SDS011;64685;48.762;44.822;2022-11-20T18:07:07;14.30;;;6.43;;
75997;SDS011;64685;48.762;44.822;2022-11-20T18:10:31;14.63;;;6.05;;
75997;SDS011;64685;48.762;44.822;2022-11-20T18:14:00;15.88;;;6.32;;
75997;SDS011;64685;48.762;44.822;2022-11-20T18:17:25;17.15;;;6.78;;
75997;SDS011;64685;48.762;44.822;2022-11-20T18:20:52;19.02;;;7.78;;
75997;SDS011;64685;48.762;44.822;2022-11-20T18:24:16;16.73;;;7.00;;
75997;SDS011;64685;48.762;44.822;2022-11-20T18:27:41;14.07;;;5.90;;
75997;SDS011;64685;48.762;44.822;2022-11-20T18:31:06;16.60;;;6.20;;
75997;SDS011;64685;48.762;44.822;2022-11-20T18:34:31;13.60;;;5.22;;
75997;SDS011;64685;48.762;44.822;2022-11-20T18:37:55;14.63;;;6.28;;
75997;SDS011;64685;48.762;44.822;2022-11-20T18:41:22;12.68;;;5.28;;
75997;SDS011;64685;48.762;44.822;2022-11-20T18:45:05;13.63;;;5.85;;
75997;SDS011;64685;48.762;44.822;2022-11-20T18:48:30;16.13;;;6.60;;
75997;SDS011;64685;48.762;44.822;2022-11-20T18:51:55;14.02;;;5.18;;
75997;SDS011;64685;48.762;44.822;2022-11-20T18:55:19;14.25;;;5.32;;
75997;SDS011;64685;48.762;44.822;2022-11-20T18:58:44;12.07;;;4.75;;
75997;SDS011;64685;48.762;44.822;2022-11-20T19:02:12;14.75;;;6.00;;
75997;SDS011;64685;48.762;44.822;2022-11-20T19:05:37;14.77;;;5.93;;
75997;SDS011;64685;48.762;44.822;2022-11-20T19:09:06;13.68;;;5.90;;
75997;SDS011;64685;48.762;44.822;2022-11-20T19:12:31;17.55;;;5.95;;
75997;SDS011;64685;48.762;44.822;2022-11-20T19:16:00;16.73;;;5.70;;
75997;SDS011;64685;48.762;44.822;2022-11-20T19:19:25;16.27;;;6.40;;
75997;SDS011;64685;48.762;44.822;2022-11-20T19:22:50;14.57;;;5.95;;
75997;SDS011;64685;48.762;44.822;2022-11-20T19:26:16;18.08;;;6.57;;
75997;SDS011;64685;48.762;44.822;2022-11-20T19:29:40;15.57;;;6.13;;
75997;SDS011;64685;48.762;44.822;2022-11-20T19:33:06;11.30;;;5.00;;
75997;SDS011;64685;48.762;44.822;2022-11-20T19:36:32;14.57;;;5.88;;
75997;SDS011;64685;48.762;44.822;2022-11-20T19:39:58;15.93;;;6.28;;
75997;SDS011;64685;48.762;44.822;2022-11-20T19:43:22;16.85;;;7.72;;
75997;SDS011;64685;48.762;44.822;2022-11-20T19:46:47;25.45;;;11.07;;
75997;SDS011;64685;48.762;44.822;2022-11-20T19:50:11;25.80;;;11.55;;
75997;SDS011;64685;48.762;44.822;2022-11-20T19:53:37;18.60;;;7.85;;
75997;SDS011;64685;48.762;44.822;2022-11-20T19:57:02;19.30;;;8.70;;
75997;SDS011;64685;48.762;44.822;2022-11-20T20:00:28;15.20;;;5.90;;
75997;SDS011;64685;48.762;44.822;2022-11-20T20:03:54;13.90;;;4.72;;
75997;SDS011;64685;48.762;44.822;2022-11-20T20:07:18;12.50;;;4.75;;
75997;SDS011;64685;48.762;44.822;2022-11-20T20:10:43;14.20;;;6.10;;
75997;SDS011;64685;48.762;44.822;2022-11-20T20:14:11;13.95;;;6.15;;
75997;SDS011;64685;48.762;44.822;2022-11-20T20:17:36;16.70;;;7.55;;
75997;SDS011;64685;48.762;44.822;2022-11-20T20:21:04;15.98;;;6.50;;
75997;SDS011;64685;48.762;44.822;2022-11-20T20:24:29;23.23;;;7.65;;
75997;SDS011;64685;48.762;44.822;2022-11-20T20:27:53;24.83;;;8.13;;
75997;SDS011;64685;48.762;44.822;2022-11-20T20:31:19;11.88;;;5.07;;
75997;SDS011;64685;48.762;44.822;2022-11-20T20:34:44;26.85;;;10.45;;
75997;SDS011;64685;48.762;44.822;2022-11-20T20:38:08;21.70;;;7.85;;
75997;SDS011;64685;48.762;44.822;2022-11-20T20:41:35;23.60;;;8.82;;
75997;SDS011;64685;48.762;44.822;2022-11-20T20:44:59;24.17;;;8.80;;
75997;SDS011;64685;48.762;44.822;2022-11-20T20:48:24;14.68;;;6.18;;
75997;SDS011;64685;48.762;44.822;2022-11-20T20:51:48;22.17;;;8.95;;
75997;SDS011;64685;48.762;44.822;2022-11-20T20:55:13;21.08;;;8.88;;
75997;SDS011;64685;48.762;44.822;2022-11-20T20:58:38;22.92;;;8.50;;
75997;SDS011;64685;48.762;44.822;2022-11-20T21:02:02;22.95;;;9.02;;
75997;SDS011;64685;48.762;44.822;2022-11-20T21:05:26;19.80;;;7.95;;
75997;SDS011;64685;48.762;44.822;2022-11-20T21:08:51;22.60;;;8.40;;
75997;SDS011;64685;48.762;44.822;2022-11-20T21:12:16;20.98;;;8.52;;
75997;SDS011;64685;48.762;44.822;2022-11-20T21:15:41;27.13;;;9.00;;
75997;SDS011;64685;48.762;44.822;2022-11-20T21:19:05;23.10;;;9.13;;
75997;SDS011;64685;48.762;44.822;2022-11-20T21:22:50;24.00;;;9.25;;
75997;SDS011;64685;48.762;44.822;2022-11-20T21:26:16;23.10;;;8.35;;
75997;SDS011;64685;48.762;44.822;2022-11-20T21:29:40;21.90;;;8.95;;
75997;SDS011;64685;48.762;44.822;2022-11-20T21:33:05;24.25;;;8.68;;
75997;SDS011;64685;48.762;44.822;2022-11-20T21:36:30;15.52;;;6.68;;
75997;SDS011;64685;48.762;44.822;2022-11-20T21:39:54;19.73;;;7.78;;
75997;SDS011;64685;48.762;44.822;2022-11-20T21:43:21;22.25;;;8.55;;
75997;SDS011;64685;48.762;44.822;2022-11-20T21:46:45;19.60;;;8.07;;
75997;SDS011;64685;48.762;44.822;2022-11-20T21:50:13;17.27;;;6.68;;
75997;SDS011;64685;48.762;44.822;2022-11-20T21:53:42;15.63;;;5.88;;
75997;SDS011;64685;48.762;44.822;2022-11-20T21:57:07;21.23;;;8.35;;
75997;SDS011;64685;48.762;44.822;2022-11-20T22:00:31;17.65;;;7.63;;
75997;SDS011;64685;48.762;44.822;2022-11-20T22:03:56;15.35;;;6.35;;
75997;SDS011;64685;48.762;44.822;2022-11-20T22:07:21;20.85;;;8.18;;
75997;SDS011;64685;48.762;44.822;2022-11-20T22:10:53;16.48;;;7.15;;
75997;SDS011;64685;48.762;44.822;2022-11-20T22:14:18;19.60;;;7.80;;
75997;SDS011;64685;48.762;44.822;2022-11-20T22:17:42;18.60;;;5.57;;